Terminal Aerodrome Forecast
Issued by NWS

Current Version | Previous Version | Text Only | Print | Product List | Glossary On
Versions: 1 2 3 4 5 6 7 8 9 10 11 12 13 14 15 16 17
264
FTAK31 PANC 221735
TAFAIL
TAF
PAIL 221735Z 2218/2318 11008KT P6SM -SHRA BKN040 OVC080
     FM222000 10014G23KT P6SM VCSH SCT030 BKN050
     FM230300 10018G30KT P6SM VCSH SCT030 OVC050
     FM231200 10012G20KT P6SM OVC060=

USA.gov is the U.S. government's official web portal to all federal, state and local government web resources and services.